Time;durP1;ratioP1;P1;durP2;ratioP2;P2;SDS_P1;SDS_P2;PMS_P1;PMS_P2;Temp;Humidity;BMP_temperature;BMP_pressure;BME280_temperature;BME280_humidity;BME280_pressure;Samples;Min_cycle;Max_cycle;Signal;HPM_P1;HPM_P2
2023/05/03 00:01:31;;;;;;;4.38;2.55;;;;;;;;;;8288225;28;20049;-71
2023/05/03 00:05:31;;;;;;;10.15;3.08;;;;;;;;;;8289218;28;20040;-70
2023/05/03 00:09:34;;;;;;;4.57;3.08;;;;;;;;;;8300665;28;20087;-71
2023/05/03 00:13:35;;;;;;;4.53;3.20;;;;;;;;;;8287360;28;20017;-70
2023/05/03 00:17:35;;;;;;;6.18;2.90;;;;;;;;;;8288446;28;20033;-71
2023/05/03 00:21:36;;;;;;;5.03;3.20;;;;;;;;;;8289360;28;20765;-71
2023/05/03 00:25:36;;;;;;;4.78;3.30;;;;;;;;;;8287839;28;20374;-71
2023/05/03 00:29:36;;;;;;;4.55;3.00;;;;;;;;;;8294708;28;20077;-71
2023/05/03 00:33:36;;;;;;;5.80;3.07;;;;;;;;;;8289396;28;20042;-71
2023/05/03 00:37:37;;;;;;;5.85;3.13;;;;;;;;;;8292111;28;20315;-71
2023/05/03 00:41:37;;;;;;;3.80;2.70;;;;;;;;;;8295996;28;20060;-71
2023/05/03 00:45:37;;;;;;;5.03;2.90;;;;;;;;;;8295518;28;20072;-72
2023/05/03 00:49:38;;;;;;;8.57;3.22;;;;;;;;;;8305094;28;20025;-71
2023/05/03 00:53:38;;;;;;;6.23;2.87;;;;;;;;;;8295528;28;20026;-72
2023/05/03 00:57:38;;;;;;;6.77;3.80;;;;;;;;;;8291408;28;20684;-71
2023/05/03 01:01:38;;;;;;;3.50;2.95;;;;;;;;;;8298116;28;20424;-71
2023/05/03 01:05:44;;;;;;;8.93;3.20;;;;;;;;;;8294017;28;20049;-71
2023/05/03 01:09:50;;;;;;;5.85;3.15;;;;;;;;;;8290757;28;20287;-71
2023/05/03 01:13:53;;;;;;;5.00;2.95;;;;;;;;;;8291700;28;20028;-72
2023/05/03 01:17:56;;;;;;;7.20;3.30;;;;;;;;;;8288608;28;20110;-71
2023/05/03 01:22:01;;;;;;;5.35;3.00;;;;;;;;;;8290713;28;20041;-71
2023/05/03 01:26:35;;;;;;;9.25;3.38;;;;;;;;;;8292082;28;20640;-71
2023/05/03 01:30:35;;;;;;;6.55;3.17;;;;;;;;;;8275524;28;20060;-71
2023/05/03 01:34:50;;;;;;;4.57;3.30;;;;;;;;;;8292709;28;20017;-71
2023/05/03 01:38:51;;;;;;;7.25;3.40;;;;;;;;;;8291401;28;20029;-72
2023/05/03 01:42:51;;;;;;;5.63;3.40;;;;;;;;;;8299352;28;20021;-71
2023/05/03 01:46:52;;;;;;;4.75;3.15;;;;;;;;;;8290243;28;20276;-71
2023/05/03 01:50:52;;;;;;;9.90;3.58;;;;;;;;;;8291248;28;20067;-71
2023/05/03 01:54:52;;;;;;;7.22;3.22;;;;;;;;;;8290519;28;20037;-71
2023/05/03 01:58:52;;;;;;;8.30;3.50;;;;;;;;;;8296812;28;20029;-71
2023/05/03 02:02:52;;;;;;;7.50;3.38;;;;;;;;;;8293559;28;20111;-71
2023/05/03 02:06:52;;;;;;;4.70;3.33;;;;;;;;;;8292094;28;20144;-71
2023/05/03 02:10:52;;;;;;;7.72;3.63;;;;;;;;;;8294438;28;20099;-70
2023/05/03 02:14:53;;;;;;;6.57;3.90;;;;;;;;;;8292306;28;20033;-71
2023/05/03 02:18:54;;;;;;;7.40;3.40;;;;;;;;;;8293881;28;20042;-70
2023/05/03 02:22:54;;;;;;;6.10;3.78;;;;;;;;;;8293867;28;20021;-71
2023/05/03 02:26:55;;;;;;;6.68;3.60;;;;;;;;;;8293255;28;20032;-71
2023/05/03 02:30:55;;;;;;;10.77;3.85;;;;;;;;;;8291682;28;20061;-71
2023/05/03 02:34:55;;;;;;;6.65;4.10;;;;;;;;;;8292017;28;20467;-71
2023/05/03 02:38:55;;;;;;;6.72;3.92;;;;;;;;;;8293703;28;20025;-71
2023/05/03 02:42:56;;;;;;;9.18;4.20;;;;;;;;;;8294343;28;20110;-71
2023/05/03 02:46:56;;;;;;;7.63;3.87;;;;;;;;;;8291629;28;20044;-71
2023/05/03 02:50:56;;;;;;;8.23;4.20;;;;;;;;;;8291086;28;21069;-71
2023/05/03 02:54:56;;;;;;;8.65;4.60;;;;;;;;;;8296299;28;20155;-71
2023/05/03 02:58:56;;;;;;;8.30;3.92;;;;;;;;;;8290977;28;21052;-71
2023/05/03 03:02:56;;;;;;;8.15;4.50;;;;;;;;;;8290643;28;20041;-71
2023/05/03 03:06:57;;;;;;;7.88;4.90;;;;;;;;;;8288697;28;20447;-71
2023/05/03 03:10:57;;;;;;;7.60;4.43;;;;;;;;;;8290564;28;20036;-71
2023/05/03 03:14:57;;;;;;;7.32;4.68;;;;;;;;;;8290275;28;20924;-71
2023/05/03 03:18:57;;;;;;;7.93;3.90;;;;;;;;;;8289556;28;20041;-71
2023/05/03 03:22:58;;;;;;;9.05;4.13;;;;;;;;;;8288762;28;20064;-71
2023/05/03 03:26:58;;;;;;;6.32;3.80;;;;;;;;;;8290807;28;20049;-71
2023/05/03 03:30:58;;;;;;;6.32;3.85;;;;;;;;;;8293942;28;21721;-70
2023/05/03 03:34:58;;;;;;;6.15;3.72;;;;;;;;;;8286817;28;20025;-71
2023/05/03 03:38:58;;;;;;;6.78;3.53;;;;;;;;;;8292010;28;20083;-71
2023/05/03 03:42:59;;;;;;;7.22;3.88;;;;;;;;;;8300771;28;20029;-71
2023/05/03 03:46:59;;;;;;;6.47;3.90;;;;;;;;;;8300220;28;20029;-71
2023/05/03 03:50:59;;;;;;;9.77;3.85;;;;;;;;;;8292704;28;20037;-71
2023/05/03 03:54:59;;;;;;;4.90;3.45;;;;;;;;;;8298738;28;20033;-71
2023/05/03 03:59:00;;;;;;;6.25;3.70;;;;;;;;;;8291987;28;20034;-71
2023/05/03 04:03:00;;;;;;;7.65;3.53;;;;;;;;;;8311268;28;20096;-72
2023/05/03 04:07:00;;;;;;;9.32;3.58;;;;;;;;;;8293864;28;20029;-71
2023/05/03 04:11:01;;;;;;;5.55;3.45;;;;;;;;;;8292302;28;20502;-71
2023/05/03 04:15:01;;;;;;;5.95;3.50;;;;;;;;;;8300806;28;20044;-71
2023/05/03 04:19:01;;;;;;;9.10;3.85;;;;;;;;;;8300484;28;20116;-71
2023/05/03 04:23:02;;;;;;;8.00;3.30;;;;;;;;;;8303788;28;20025;-71
2023/05/03 04:27:03;;;;;;;3.95;3.08;;;;;;;;;;8327348;28;20093;-73
2023/05/03 04:31:04;;;;;;;7.05;3.70;;;;;;;;;;8304858;28;20117;-74
2023/05/03 04:35:09;;;;;;;5.72;3.40;;;;;;;;;;8298352;28;20025;-71
2023/05/03 04:39:10;;;;;;;9.88;3.45;;;;;;;;;;8299328;28;20124;-71
2023/05/03 04:43:11;;;;;;;10.15;3.50;;;;;;;;;;8299933;28;20026;-71
2023/05/03 04:47:11;;;;;;;5.43;3.47;;;;;;;;;;8296591;28;20033;-71
2023/05/03 04:51:12;;;;;;;9.02;4.00;;;;;;;;;;8298954;28;20162;-72
2023/05/03 04:55:12;;;;;;;10.63;3.30;;;;;;;;;;8300110;28;20021;-73
2023/05/03 04:59:13;;;;;;;12.50;3.90;;;;;;;;;;8294857;28;20445;-72
2023/05/03 05:03:13;;;;;;;9.75;3.67;;;;;;;;;;8294357;28;20609;-72
2023/05/03 05:07:13;;;;;;;14.27;3.55;;;;;;;;;;8294267;28;20041;-72
2023/05/03 05:11:14;;;;;;;8.23;3.63;;;;;;;;;;8288101;28;20022;-72
2023/05/03 05:15:14;;;;;;;7.97;3.85;;;;;;;;;;8301999;28;20025;-72
2023/05/03 05:19:15;;;;;;;9.20;3.90;;;;;;;;;;8287691;28;20017;-71
2023/05/03 05:23:15;;;;;;;6.60;3.45;;;;;;;;;;8282318;28;20034;-72
2023/05/03 05:27:15;;;;;;;8.93;3.80;;;;;;;;;;8286425;28;20388;-72
2023/05/03 05:31:16;;;;;;;5.95;3.22;;;;;;;;;;8294655;28;20122;-72
2023/05/03 05:35:17;;;;;;;5.40;3.17;;;;;;;;;;8297981;28;20018;-72
2023/05/03 05:39:18;;;;;;;6.78;3.60;;;;;;;;;;8296988;28;20925;-71
2023/05/03 05:43:18;;;;;;;8.05;3.60;;;;;;;;;;8288331;28;20142;-72
2023/05/03 05:47:18;;;;;;;7.63;3.83;;;;;;;;;;8283889;28;20105;-71
2023/05/03 05:51:19;;;;;;;9.52;4.03;;;;;;;;;;8280769;28;20029;-72
2023/05/03 05:55:20;;;;;;;8.23;3.80;;;;;;;;;;8293677;28;20526;-71
2023/05/03 05:59:20;;;;;;;8.82;4.18;;;;;;;;;;8286608;28;20034;-72
2023/05/03 06:03:20;;;;;;;10.00;4.10;;;;;;;;;;8287379;28;20046;-71
2023/05/03 06:07:20;;;;;;;10.23;3.90;;;;;;;;;;8295439;28;20032;-71
2023/05/03 06:11:20;;;;;;;8.77;3.78;;;;;;;;;;8299596;28;20450;-72
2023/05/03 06:15:20;;;;;;;8.10;4.13;;;;;;;;;;8289453;28;20036;-72
2023/05/03 06:19:23;;;;;;;8.77;4.10;;;;;;;;;;8285235;28;20045;-72
2023/05/03 06:23:23;;;;;;;6.32;3.47;;;;;;;;;;8286839;28;20036;-72
2023/05/03 06:27:23;;;;;;;8.80;3.53;;;;;;;;;;8285435;28;20151;-72
2023/05/03 06:31:24;;;;;;;11.18;4.25;;;;;;;;;;8280229;28;20029;-72
2023/05/03 06:35:24;;;;;;;9.40;3.20;;;;;;;;;;8283701;28;20022;-73
2023/05/03 06:39:24;;;;;;;8.20;3.25;;;;;;;;;;8286602;28;20079;-73
2023/05/03 06:43:24;;;;;;;5.72;3.40;;;;;;;;;;8283310;28;20804;-72
2023/05/03 06:47:25;;;;;;;6.97;3.40;;;;;;;;;;8280850;28;20049;-72
2023/05/03 06:51:31;;;;;;;4.40;3.47;;;;;;;;;;8274687;28;20422;-72
2023/05/03 06:55:31;;;;;;;7.15;3.25;;;;;;;;;;8283829;28;20045;-72
2023/05/03 06:59:32;;;;;;;10.40;3.40;;;;;;;;;;8284903;28;20475;-72
2023/05/03 07:03:32;;;;;;;7.18;3.20;;;;;;;;;;8283318;28;20532;-72
2023/05/03 07:07:32;;;;;;;8.27;3.42;;;;;;;;;;8283348;28;20695;-72
2023/05/03 07:11:35;;;;;;;5.78;3.13;;;;;;;;;;8284758;28;20027;-72
2023/05/03 07:15:36;;;;;;;6.57;3.30;;;;;;;;;;8281689;28;20041;-72
2023/05/03 07:19:37;;;;;;;8.90;3.80;;;;;;;;;;8282696;28;20156;-72
2023/05/03 07:23:37;;;;;;;5.43;2.90;;;;;;;;;;8285196;28;20143;-72
2023/05/03 07:27:37;;;;;;;7.80;3.00;;;;;;;;;;8271014;28;20095;-72
2023/05/03 07:31:37;;;;;;;7.63;3.42;;;;;;;;;;8278484;28;20034;-72
2023/05/03 07:35:38;;;;;;;6.55;3.42;;;;;;;;;;8283573;28;20021;-72
2023/05/03 07:39:38;;;;;;;6.85;3.10;;;;;;;;;;8278157;28;20052;-72
2023/05/03 07:43:38;;;;;;;6.27;3.23;;;;;;;;;;8265486;28;20029;-71
2023/05/03 07:47:38;;;;;;;10.15;3.13;;;;;;;;;;8286073;28;20640;-72
2023/05/03 07:51:39;;;;;;;7.53;3.03;;;;;;;;;;8292887;28;20056;-71
2023/05/03 07:55:40;;;;;;;9.13;3.60;;;;;;;;;;8291917;28;20021;-72
2023/05/03 07:59:43;;;;;;;6.90;3.20;;;;;;;;;;8289294;28;20069;-73
2023/05/03 08:03:43;;;;;;;8.20;3.28;;;;;;;;;;8289234;28;20036;-73
2023/05/03 08:07:44;;;;;;;7.63;3.85;;;;;;;;;;8288171;28;20460;-79
2023/05/03 08:11:44;;;;;;;9.65;3.42;;;;;;;;;;8289190;28;20017;-73
2023/05/03 08:15:44;;;;;;;6.55;3.30;;;;;;;;;;8298152;28;20033;-73
2023/05/03 08:19:45;;;;;;;10.40;3.10;;;;;;;;;;8278656;28;20087;-74
2023/05/03 08:23:45;;;;;;;6.53;3.20;;;;;;;;;;8287222;28;20056;-74
2023/05/03 08:27:45;;;;;;;9.77;3.40;;;;;;;;;;8289175;28;20032;-73
2023/05/03 08:31:46;;;;;;;6.55;3.33;;;;;;;;;;8275523;28;20212;-73
2023/05/03 08:35:46;;;;;;;4.70;3.30;;;;;;;;;;8278784;28;20021;-73
2023/05/03 08:39:46;;;;;;;7.13;3.50;;;;;;;;;;8272015;28;20669;-73
2023/05/03 08:43:50;;;;;;;7.05;3.42;;;;;;;;;;8279983;28;20374;-73
2023/05/03 08:47:54;;;;;;;5.75;3.50;;;;;;;;;;8282321;28;20410;-73
2023/05/03 08:51:54;;;;;;;;;;;;;;;;;;8284822;28;20596;-72
2023/05/03 08:55:54;;;;;;;11.00;3.87;;;;;;;;;;8294169;28;19940;-73
2023/05/03 08:59:59;;;;;;;8.00;3.80;;;;;;;;;;8286724;28;20975;-73
2023/05/03 09:03:59;;;;;;;6.90;3.92;;;;;;;;;;8293416;28;20050;-73
2023/05/03 09:08:00;;;;;;;5.45;3.67;;;;;;;;;;8291335;28;20020;-73
2023/05/03 09:12:00;;;;;;;10.45;4.32;;;;;;;;;;8287453;28;20025;-72
2023/05/03 09:16:01;;;;;;;7.72;4.10;;;;;;;;;;8294202;28;20104;-73
2023/05/03 09:20:02;;;;;;;6.22;3.72;;;;;;;;;;8290266;28;20032;-72
2023/05/03 09:24:11;;;;;;;6.40;4.30;;;;;;;;;;8289413;28;20021;-72
2023/05/03 09:28:12;;;;;;;5.43;4.00;;;;;;;;;;8309613;28;20029;-73
2023/05/03 09:32:12;;;;;;;5.55;3.60;;;;;;;;;;8294945;28;20076;-73
2023/05/03 09:36:12;;;;;;;6.18;3.70;;;;;;;;;;8298374;28;20017;-73
2023/05/03 09:40:16;;;;;;;6.53;4.22;;;;;;;;;;8292742;28;20025;-72
2023/05/03 09:44:17;;;;;;;7.07;4.30;;;;;;;;;;8287100;28;20055;-72
2023/05/03 09:48:21;;;;;;;5.77;3.90;;;;;;;;;;8282827;28;20040;-73
2023/05/03 09:52:22;;;;;;;6.32;4.13;;;;;;;;;;8283263;28;20394;-72
2023/05/03 09:56:25;;;;;;;9.13;4.25;;;;;;;;;;8288579;28;20073;-73
2023/05/03 10:00:27;;;;;;;9.50;5.60;;;;;;;;;;8285457;28;20041;-73
2023/05/03 10:04:32;;;;;;;7.87;4.30;;;;;;;;;;8296262;28;20037;-73
2023/05/03 10:08:44;;;;;;;7.53;4.40;;;;;;;;;;8285739;28;20049;-73
2023/05/03 10:12:45;;;;;;;6.78;4.03;;;;;;;;;;8283858;28;20025;-73
2023/05/03 10:16:48;;;;;;;6.78;4.32;;;;;;;;;;8287876;28;20690;-73
2023/05/03 10:20:51;;;;;;;6.65;4.13;;;;;;;;;;8278168;28;20079;-73
2023/05/03 10:25:01;;;;;;;6.90;4.80;;;;;;;;;;8276156;28;20037;-72
2023/05/03 10:29:01;;;;;;;6.88;4.70;;;;;;;;;;8294177;28;20211;-73
2023/05/03 10:33:10;;;;;;;5.60;4.30;;;;;;;;;;8292065;28;20046;-73
2023/05/03 10:37:10;;;;;;;8.88;5.15;;;;;;;;;;8299682;28;20137;-73
2023/05/03 10:41:11;;;;;;;8.27;5.18;;;;;;;;;;8284406;28;20186;-73
2023/05/03 10:45:23;;;;;;;7.60;4.32;;;;;;;;;;8287396;28;20034;-74
2023/05/03 10:49:25;;;;;;;7.07;4.38;;;;;;;;;;8285828;28;20027;-73
2023/05/03 10:53:41;;;;;;;7.07;3.90;;;;;;;;;;8297541;28;20026;-73
2023/05/03 10:57:42;;;;;;;6.15;4.40;;;;;;;;;;8284648;28;20036;-73
2023/05/03 11:01:44;;;;;;;8.80;4.65;;;;;;;;;;8284955;28;20041;-73
2023/05/03 11:05:46;;;;;;;7.45;4.95;;;;;;;;;;8283885;28;20040;-73
2023/05/03 11:09:46;;;;;;;6.77;4.70;;;;;;;;;;8283649;28;20025;-73
2023/05/03 11:13:49;;;;;;;11.85;4.70;;;;;;;;;;8281197;28;20095;-73
2023/05/03 11:17:49;;;;;;;8.45;5.07;;;;;;;;;;8278143;28;20168;-73
2023/05/03 11:21:50;;;;;;;5.38;4.35;;;;;;;;;;8285414;28;20060;-73
2023/05/03 11:25:50;;;;;;;7.65;4.35;;;;;;;;;;8299520;28;20686;-73
2023/05/03 11:29:51;;;;;;;8.52;4.40;;;;;;;;;;8283582;28;20026;-73
2023/05/03 11:33:52;;;;;;;8.10;5.13;;;;;;;;;;8285888;28;20050;-73
2023/05/03 11:37:55;;;;;;;7.07;4.73;;;;;;;;;;8283752;28;20888;-73
2023/05/03 11:41:55;;;;;;;;;;;;;;;;;;8291750;28;20033;-74
2023/05/03 11:45:57;;;;;;;7.75;4.80;;;;;;;;;;8285652;28;20820;-73
2023/05/03 11:49:57;;;;;;;7.25;4.68;;;;;;;;;;8289264;28;20030;-74
2023/05/03 11:53:58;;;;;;;9.65;4.70;;;;;;;;;;8290677;28;20018;-73
2023/05/03 11:57:59;;;;;;;6.57;4.30;;;;;;;;;;8311029;28;20755;-74
2023/05/03 12:02:01;;;;;;;8.45;4.78;;;;;;;;;;8269394;28;21033;-73
2023/05/03 12:06:01;;;;;;;7.68;4.38;;;;;;;;;;8285317;28;20536;-73
2023/05/03 12:10:17;;;;;;;9.05;5.05;;;;;;;;;;8288375;28;20914;-73
2023/05/03 12:14:17;;;;;;;6.90;3.72;;;;;;;;;;8283848;28;20032;-73
2023/05/03 12:18:17;;;;;;;6.30;4.20;;;;;;;;;;8283300;28;20081;-73
2023/05/03 12:22:18;;;;;;;7.40;4.30;;;;;;;;;;8283338;28;20083;-74
2023/05/03 12:26:22;;;;;;;6.88;4.38;;;;;;;;;;8281113;28;20557;-74
2023/05/03 12:30:22;;;;;;;6.45;4.50;;;;;;;;;;8286453;28;20029;-74
2023/05/03 12:34:22;;;;;;;7.00;4.00;;;;;;;;;;8288567;28;20037;-74
2023/05/03 12:38:23;;;;;;;7.00;4.40;;;;;;;;;;8283625;28;20120;-73
2023/05/03 12:42:24;;;;;;;5.70;4.40;;;;;;;;;;8289346;28;20033;-74
2023/05/03 12:46:25;;;;;;;8.73;4.65;;;;;;;;;;8291871;28;20205;-73
2023/05/03 12:50:25;;;;;;;5.33;3.70;;;;;;;;;;8284584;28;20033;-73
2023/05/03 12:54:26;;;;;;;5.82;4.20;;;;;;;;;;8281702;28;20062;-73
2023/05/03 12:58:27;;;;;;;8.00;4.18;;;;;;;;;;8298656;28;20061;-73
2023/05/03 13:02:27;;;;;;;6.38;3.65;;;;;;;;;;8284576;28;20045;-73
2023/05/03 13:06:28;;;;;;;5.78;3.45;;;;;;;;;;8288299;28;20033;-73
2023/05/03 13:10:28;;;;;;;5.57;3.57;;;;;;;;;;8286393;28;20021;-73
2023/05/03 13:14:28;;;;;;;5.43;3.00;;;;;;;;;;8283374;28;20422;-74
2023/05/03 13:18:28;;;;;;;6.45;3.10;;;;;;;;;;8290532;28;20030;-73
2023/05/03 13:22:29;;;;;;;7.05;3.42;;;;;;;;;;8288499;28;20099;-74
2023/05/03 13:26:30;;;;;;;11.48;3.83;;;;;;;;;;8286943;28;20021;-74
2023/05/03 13:30:31;;;;;;;6.97;3.00;;;;;;;;;;8284359;28;20767;-74
2023/05/03 13:34:31;;;;;;;4.95;3.05;;;;;;;;;;8287447;28;20025;-73
2023/05/03 13:38:32;;;;;;;6.55;3.50;;;;;;;;;;8286470;28;20120;-74
2023/05/03 13:42:33;;;;;;;6.22;3.45;;;;;;;;;;8285813;28;20031;-73
2023/05/03 13:46:37;;;;;;;5.18;3.03;;;;;;;;;;8287166;28;20136;-74
2023/05/03 13:50:37;;;;;;;6.13;2.90;;;;;;;;;;8286943;28;20031;-73
2023/05/03 13:54:37;;;;;;;4.00;2.80;;;;;;;;;;8287318;28;20048;-73
2023/05/03 13:58:38;;;;;;;4.22;2.50;;;;;;;;;;8287852;28;20769;-74
2023/05/03 14:02:38;;;;;;;4.88;2.63;;;;;;;;;;8291667;28;20187;-74
2023/05/03 14:06:39;;;;;;;5.30;2.70;;;;;;;;;;8295348;28;20040;-74
2023/05/03 14:10:39;;;;;;;5.37;2.73;;;;;;;;;;8271437;28;20036;-73
2023/05/03 14:14:39;;;;;;;4.55;2.78;;;;;;;;;;8294078;28;21048;-73
2023/05/03 14:18:40;;;;;;;5.03;2.72;;;;;;;;;;8294886;28;20029;-73
2023/05/03 14:22:40;;;;;;;5.30;3.00;;;;;;;;;;8286446;28;20032;-73
2023/05/03 14:26:41;;;;;;;5.22;3.10;;;;;;;;;;8285301;28;21150;-74
2023/05/03 14:30:41;;;;;;;4.95;2.65;;;;;;;;;;8291808;28;20409;-74
2023/05/03 14:34:44;;;;;;;4.82;2.70;;;;;;;;;;8305152;28;20132;-73
2023/05/03 14:38:44;;;;;;;5.13;2.60;;;;;;;;;;8298578;28;20912;-73
2023/05/03 14:42:45;;;;;;;4.10;2.30;;;;;;;;;;8291652;28;20422;-74
2023/05/03 14:46:45;;;;;;;6.93;2.50;;;;;;;;;;8290968;28;20119;-73
2023/05/03 14:50:49;;;;;;;4.77;2.57;;;;;;;;;;8299003;28;20025;-73
2023/05/03 14:54:49;;;;;;;2.90;2.10;;;;;;;;;;8296227;28;20968;-73
2023/05/03 14:58:50;;;;;;;4.07;2.40;;;;;;;;;;8287809;28;20025;-73
2023/05/03 15:02:55;;;;;;;4.15;2.40;;;;;;;;;;8291404;28;20065;-73
2023/05/03 15:07:00;;;;;;;4.85;2.10;;;;;;;;;;8296688;28;20060;-73
2023/05/03 15:11:00;;;;;;;2.85;1.80;;;;;;;;;;8293276;28;20442;-73
2023/05/03 15:15:00;;;;;;;2.83;1.90;;;;;;;;;;8298169;28;20029;-73
2023/05/03 15:19:00;;;;;;;3.72;2.38;;;;;;;;;;8298084;28;20052;-73
2023/05/03 15:23:02;;;;;;;7.00;2.20;;;;;;;;;;8304349;28;20117;-73
2023/05/03 15:27:03;;;;;;;5.35;2.40;;;;;;;;;;8302269;28;20296;-73
2023/05/03 15:31:04;;;;;;;3.88;2.30;;;;;;;;;;8300421;28;20029;-72
2023/05/03 15:35:04;;;;;;;5.63;2.00;;;;;;;;;;8292138;28;20108;-72
2023/05/03 15:39:05;;;;;;;4.35;2.10;;;;;;;;;;8281323;28;20026;-72
2023/05/03 15:43:05;;;;;;;4.68;2.10;;;;;;;;;;8293578;28;20144;-72
2023/05/03 15:47:05;;;;;;;5.55;2.40;;;;;;;;;;8294339;28;20057;-73
2023/05/03 15:51:05;;;;;;;2.65;1.70;;;;;;;;;;8296183;28;20103;-73
2023/05/03 15:55:06;;;;;;;6.03;2.15;;;;;;;;;;8289205;28;20029;-72
2023/05/03 15:59:07;;;;;;;3.03;1.70;;;;;;;;;;8291088;28;20033;-72
2023/05/03 16:03:07;;;;;;;3.42;1.92;;;;;;;;;;8298282;28;20136;-73
2023/05/03 16:07:07;;;;;;;3.38;2.10;;;;;;;;;;8298844;28;20037;-73
2023/05/03 16:11:07;;;;;;;4.45;1.90;;;;;;;;;;8298893;28;20032;-73
2023/05/03 16:15:08;;;;;;;3.20;1.97;;;;;;;;;;8299016;28;20029;-73
2023/05/03 16:19:08;;;;;;;4.82;1.75;;;;;;;;;;8297274;28;20025;-72
2023/05/03 16:23:09;;;;;;;3.00;1.60;;;;;;;;;;8303045;28;20029;-73
2023/05/03 16:27:09;;;;;;;4.63;1.77;;;;;;;;;;8304739;28;20272;-73
2023/05/03 16:31:09;;;;;;;4.18;1.70;;;;;;;;;;8290785;28;20037;-72
2023/05/03 16:35:10;;;;;;;5.57;2.00;;;;;;;;;;8297088;28;20446;-73
2023/05/03 16:39:12;;;;;;;2.03;1.58;;;;;;;;;;8292861;28;20124;-73
2023/05/03 16:43:14;;;;;;;2.20;1.80;;;;;;;;;;8290406;28;20029;-72
2023/05/03 16:47:14;;;;;;;2.15;1.70;;;;;;;;;;8288049;28;20228;-73
2023/05/03 16:51:18;;;;;;;3.17;1.70;;;;;;;;;;8295328;28;20033;-72
2023/05/03 16:55:22;;;;;;;3.10;1.70;;;;;;;;;;8290440;28;20545;-73
2023/05/03 16:59:22;;;;;;;5.07;1.70;;;;;;;;;;8296927;28;20029;-73
2023/05/03 17:03:22;;;;;;;3.03;1.85;;;;;;;;;;8289613;28;20153;-73
2023/05/03 17:07:22;;;;;;;5.07;1.60;;;;;;;;;;8278467;28;20029;-73
2023/05/03 17:11:23;;;;;;;5.18;1.60;;;;;;;;;;8288357;28;20028;-73
2023/05/03 17:15:23;;;;;;;2.60;1.75;;;;;;;;;;8281102;28;20975;-72
2023/05/03 17:19:23;;;;;;;6.20;1.88;;;;;;;;;;8286853;28;20025;-72
2023/05/03 17:23:23;;;;;;;2.77;1.63;;;;;;;;;;8277127;28;20026;-72
2023/05/03 17:27:23;;;;;;;2.42;1.60;;;;;;;;;;8281617;28;20148;-73
2023/05/03 17:31:24;;;;;;;4.07;1.50;;;;;;;;;;8281964;28;20025;-72
2023/05/03 17:35:24;;;;;;;4.32;1.80;;;;;;;;;;8281668;28;20060;-72
2023/05/03 17:39:27;;;;;;;3.15;1.55;;;;;;;;;;8284529;28;20018;-72
2023/05/03 17:43:27;;;;;;;3.40;1.45;;;;;;;;;;8280220;28;22043;-73
2023/05/03 17:47:27;;;;;;;2.88;1.50;;;;;;;;;;8286145;28;20033;-72
2023/05/03 17:51:29;;;;;;;4.75;1.70;;;;;;;;;;8285055;28;20883;-73
2023/05/03 17:55:32;;;;;;;2.63;1.50;;;;;;;;;;8281463;28;20025;-72
2023/05/03 17:59:32;;;;;;;4.75;1.67;;;;;;;;;;8284414;28;20067;-73
2023/05/03 18:03:33;;;;;;;4.30;1.90;;;;;;;;;;8289441;28;20887;-72
2023/05/03 18:07:33;;;;;;;2.37;1.73;;;;;;;;;;8284857;28;20021;-72
2023/05/03 18:11:33;;;;;;;3.37;1.57;;;;;;;;;;8287755;28;20350;-72
2023/05/03 18:15:34;;;;;;;3.97;1.80;;;;;;;;;;8284423;28;20366;-72
2023/05/03 18:19:34;;;;;;;5.20;1.70;;;;;;;;;;8284073;28;21206;-72
2023/05/03 18:23:35;;;;;;;4.10;1.60;;;;;;;;;;8282826;28;20127;-72
2023/05/03 18:27:36;;;;;;;3.80;1.70;;;;;;;;;;8283251;28;20021;-72
2023/05/03 18:31:36;;;;;;;3.38;1.60;;;;;;;;;;8281889;28;21064;-72
2023/05/03 18:35:36;;;;;;;3.03;1.35;;;;;;;;;;8279844;28;20515;-72
2023/05/03 18:39:36;;;;;;;4.75;1.55;;;;;;;;;;8282616;28;20026;-71
2023/05/03 18:43:36;;;;;;;3.47;1.50;;;;;;;;;;8280171;28;20050;-72
2023/05/03 18:47:37;;;;;;;3.70;1.70;;;;;;;;;;8283468;28;20037;-72
2023/05/03 18:51:37;;;;;;;3.17;1.50;;;;;;;;;;8280246;28;20482;-71
2023/05/03 18:55:37;;;;;;;2.60;1.45;;;;;;;;;;8284497;28;20033;-71
2023/05/03 18:59:38;;;;;;;3.05;1.60;;;;;;;;;;8281548;28;20559;-71
2023/05/03 19:03:38;;;;;;;7.55;1.58;;;;;;;;;;8289793;28;20041;-71
2023/05/03 19:07:41;;;;;;;3.50;1.67;;;;;;;;;;8282669;28;20108;-71
2023/05/03 19:11:42;;;;;;;3.67;1.48;;;;;;;;;;8280650;28;20148;-71
2023/05/03 19:15:43;;;;;;;2.65;1.60;;;;;;;;;;8283251;28;20065;-72
2023/05/03 19:19:43;;;;;;;4.10;1.70;;;;;;;;;;8281870;28;20121;-72
2023/05/03 19:23:44;;;;;;;6.07;1.70;;;;;;;;;;8281795;28;20025;-72
2023/05/03 19:27:44;;;;;;;5.03;2.00;;;;;;;;;;8284359;28;20026;-72
2023/05/03 19:31:44;;;;;;;6.27;1.67;;;;;;;;;;8286529;28;20038;-72
2023/05/03 19:35:44;;;;;;;3.53;1.65;;;;;;;;;;8296863;28;20109;-72
2023/05/03 19:39:45;;;;;;;5.00;1.90;;;;;;;;;;8288231;28;20025;-71
2023/05/03 19:43:45;;;;;;;1.92;1.70;;;;;;;;;;8285138;28;20060;-72
2023/05/03 19:47:45;;;;;;;2.95;1.60;;;;;;;;;;8284406;28;20446;-71
2023/05/03 19:51:46;;;;;;;3.28;1.60;;;;;;;;;;8291117;28;20033;-71
2023/05/03 19:55:56;;;;;;;2.22;1.50;;;;;;;;;;8282222;28;20018;-71
2023/05/03 19:59:57;;;;;;;4.60;1.60;;;;;;;;;;8288559;28;20040;-71
2023/05/03 20:03:57;;;;;;;3.42;1.77;;;;;;;;;;8289281;28;20037;-72
2023/05/03 20:07:57;;;;;;;3.25;1.50;;;;;;;;;;8297744;28;20029;-71
2023/05/03 20:11:58;;;;;;;5.20;1.73;;;;;;;;;;8292363;28;20471;-71
2023/05/03 20:16:00;;;;;;;2.23;1.50;;;;;;;;;;8287480;28;20091;-71
2023/05/03 20:20:08;;;;;;;1.50;1.35;;;;;;;;;;8289015;28;20280;-71
2023/05/03 20:24:09;;;;;;;3.10;1.48;;;;;;;;;;8288805;28;20044;-71
2023/05/03 20:28:10;;;;;;;2.78;1.35;;;;;;;;;;8286702;28;20030;-71
2023/05/03 20:32:10;;;;;;;2.42;1.40;;;;;;;;;;8288018;28;20676;-70
2023/05/03 20:36:13;;;;;;;5.90;1.63;;;;;;;;;;8287846;28;20041;-71
2023/05/03 20:40:14;;;;;;;3.33;1.45;;;;;;;;;;8288222;28;20033;-71
2023/05/03 20:44:14;;;;;;;3.17;1.30;;;;;;;;;;8294136;28;20025;-71
2023/05/03 20:48:14;;;;;;;3.60;1.50;;;;;;;;;;8287942;28;20144;-71
2023/05/03 20:52:16;;;;;;;4.10;2.28;;;;;;;;;;8287233;28;20060;-71
2023/05/03 20:56:16;;;;;;;6.10;2.38;;;;;;;;;;8243920;28;20110;-71
2023/05/03 21:00:16;;;;;;;5.30;2.47;;;;;;;;;;8239720;28;20039;-71
2023/05/03 21:04:17;;;;;;;4.27;2.87;;;;;;;;;;8245038;28;20980;-71
2023/05/03 21:08:18;;;;;;;2.83;2.00;;;;;;;;;;8268226;28;20433;-70
2023/05/03 21:12:18;;;;;;;3.55;2.25;;;;;;;;;;8216151;28;20123;-71
2023/05/03 21:16:18;;;;;;;5.43;2.88;;;;;;;;;;8229836;28;20040;-71
2023/05/03 21:20:18;;;;;;;3.30;2.05;;;;;;;;;;8242250;28;20038;-71
2023/05/03 21:24:19;;;;;;;7.82;2.20;;;;;;;;;;8250536;28;20022;-71
2023/05/03 21:28:19;;;;;;;4.00;1.80;;;;;;;;;;8258529;28;20136;-71
2023/05/03 21:32:19;;;;;;;3.50;2.03;;;;;;;;;;8256951;28;20287;-71
2023/05/03 21:36:19;;;;;;;2.97;1.98;;;;;;;;;;8253715;28;20036;-71
2023/05/03 21:40:20;;;;;;;2.20;1.77;;;;;;;;;;8255367;28;20032;-71
2023/05/03 21:44:20;;;;;;;3.05;1.75;;;;;;;;;;8256969;28;20445;-71
2023/05/03 21:48:22;;;;;;;3.28;1.70;;;;;;;;;;8258891;28;20041;-71
2023/05/03 21:52:22;;;;;;;2.00;1.70;;;;;;;;;;8251657;28;20787;-71
2023/05/03 21:56:22;;;;;;;4.00;2.20;;;;;;;;;;8251431;28;20584;-71
2023/05/03 22:00:23;;;;;;;3.35;1.92;;;;;;;;;;8251106;28;20269;-71
2023/05/03 22:04:24;;;;;;;2.25;1.90;;;;;;;;;;8250625;28;20026;-70
2023/05/03 22:08:24;;;;;;;2.25;1.55;;;;;;;;;;8255736;28;20057;-70
2023/05/03 22:12:24;;;;;;;2.15;1.67;;;;;;;;;;8260356;28;20030;-71
2023/05/03 22:16:24;;;;;;;2.60;1.75;;;;;;;;;;8251399;28;20033;-70
2023/05/03 22:20:26;;;;;;;2.58;1.83;;;;;;;;;;8251369;28;20029;-70
2023/05/03 22:24:28;;;;;;;4.45;1.92;;;;;;;;;;8255825;28;20030;-71
2023/05/03 22:28:28;;;;;;;1.73;1.60;;;;;;;;;;8257644;28;20145;-70
2023/05/03 22:32:28;;;;;;;2.13;1.80;;;;;;;;;;8270939;28;20639;-70
2023/05/03 22:36:28;;;;;;;4.90;1.92;;;;;;;;;;8292269;28;20767;-70
2023/05/03 22:40:28;;;;;;;2.45;1.70;;;;;;;;;;8287558;28;20025;-70
2023/05/03 22:44:29;;;;;;;3.15;1.90;;;;;;;;;;8285133;28;20033;-70
2023/05/03 22:48:31;;;;;;;2.22;1.80;;;;;;;;;;8291068;28;20126;-70
2023/05/03 22:52:31;;;;;;;3.03;1.60;;;;;;;;;;8284828;28;20932;-70
2023/05/03 22:56:31;;;;;;;2.17;1.60;;;;;;;;;;8291219;28;20031;-70
2023/05/03 23:00:31;;;;;;;3.95;1.60;;;;;;;;;;8284424;28;20060;-70
2023/05/03 23:04:32;;;;;;;3.15;1.63;;;;;;;;;;8286948;28;20025;-70
2023/05/03 23:08:32;;;;;;;2.70;1.20;;;;;;;;;;8285016;28;20536;-70
2023/05/03 23:12:32;;;;;;;3.25;1.60;;;;;;;;;;8284358;28;20580;-70
2023/05/03 23:16:33;;;;;;;2.50;1.60;;;;;;;;;;8286935;28;20773;-70
2023/05/03 23:20:33;;;;;;;2.88;1.90;;;;;;;;;;8286101;28;20148;-70
2023/05/03 23:24:33;;;;;;;1.92;1.52;;;;;;;;;;8279262;28;20112;-70
2023/05/03 23:28:34;;;;;;;1.50;1.40;;;;;;;;;;8286165;28;20105;-70
2023/05/03 23:32:34;;;;;;;2.65;1.70;;;;;;;;;;8285061;28;20071;-70
2023/05/03 23:36:35;;;;;;;1.75;1.40;;;;;;;;;;8286350;28;20030;-70
2023/05/03 23:40:35;;;;;;;1.60;1.50;;;;;;;;;;8285017;28;20025;-71
2023/05/03 23:44:35;;;;;;;2.78;1.50;;;;;;;;;;8282745;28;20021;-71
2023/05/03 23:48:35;;;;;;;3.60;1.40;;;;;;;;;;8282416;28;20810;-71
2023/05/03 23:52:35;;;;;;;4.28;1.70;;;;;;;;;;8285372;28;20395;-71
2023/05/03 23:56:36;;;;;;;1.58;1.42;;;;;;;;;;8287969;28;20103;-71
